createdAt,value
2023-01-08T00:01:49.538Z,101293.16
2023-01-08T00:04:18.118Z,101306.31
2023-01-08T00:06:45.672Z,101299.25
2023-01-08T00:09:13.285Z,101278.91
2023-01-08T00:11:41.045Z,101267.41
2023-01-08T00:14:08.546Z,101268.31
2023-01-08T00:16:36.097Z,101250.56
2023-01-08T00:19:03.802Z,101260.34
2023-01-08T00:21:31.203Z,101244.44
2023-01-08T00:23:58.648Z,101255.06
2023-01-08T00:26:26.210Z,101256.84
2023-01-08T00:28:54.241Z,101251.50
2023-01-08T00:31:22.166Z,101235.75
2023-01-08T00:33:49.641Z,101212.84
2023-01-08T00:36:19.381Z,101235.78
2023-01-08T00:38:47.260Z,101219.78
2023-01-08T00:41:16.085Z,101204.66
2023-01-08T00:43:43.554Z,101234.72
2023-01-08T00:46:11.121Z,101258.56
2023-01-08T00:48:41.463Z,101260.38
2023-01-08T00:51:09.427Z,101249.00
2023-01-08T00:53:38.317Z,101246.34
2023-01-08T00:56:09.150Z,101247.25
2023-01-08T00:58:37.084Z,101248.13
2023-01-08T01:01:10.978Z,101264.84
2023-01-08T01:03:38.802Z,101258.56
2023-01-08T01:06:07.193Z,101275.41
2023-01-08T01:08:35.425Z,101272.72
2023-01-08T01:11:10.968Z,101257.75
2023-01-08T01:13:38.465Z,101251.53
2023-01-08T01:16:06.165Z,101248.03
2023-01-08T01:18:33.703Z,101233.91
2023-01-08T01:21:01.248Z,101233.84
2023-01-08T01:23:28.763Z,101243.63
2023-01-08T01:25:56.369Z,101236.53
2023-01-08T01:28:23.819Z,101254.25
2023-01-08T01:30:56.594Z,101248.88
2023-01-08T01:33:24.244Z,101238.31
2023-01-08T01:36:00.034Z,101245.28
2023-01-08T01:38:27.675Z,101246.19
2023-01-08T01:40:55.450Z,101248.84
2023-01-08T01:43:40.456Z,101242.66
2023-01-08T01:46:24.213Z,101240.88
2023-01-08T01:48:56.650Z,101233.88
2023-01-08T01:51:29.383Z,101238.22
2023-01-08T01:53:57.557Z,101230.31
2023-01-08T01:56:25.100Z,101239.09
2023-01-08T01:58:52.479Z,101221.53
2023-01-08T02:01:20.323Z,101230.28
2023-01-08T02:03:47.949Z,101227.69
2023-01-08T02:06:37.969Z,101211.84
2023-01-08T02:09:15.147Z,101216.31
2023-01-08T02:11:45.372Z,101217.13
2023-01-08T02:14:44.836Z,101209.09
2023-01-08T02:17:20.091Z,101211.75
2023-01-08T02:19:57.416Z,101207.41
2023-01-08T02:22:44.842Z,101182.69
2023-01-08T02:25:57.115Z,101171.34
2023-01-08T02:28:26.568Z,101182.72
2023-01-08T02:30:55.547Z,101185.41
2023-01-08T02:33:24.143Z,101188.06
2023-01-08T02:36:14.108Z,101192.41
2023-01-08T02:38:54.154Z,101178.28
2023-01-08T02:41:28.824Z,101185.38
2023-01-08T02:43:59.170Z,101197.69
2023-01-08T02:46:34.347Z,101201.31
2023-01-08T02:49:10.369Z,101183.56
2023-01-08T02:51:43.221Z,101168.63
2023-01-08T02:54:18.108Z,101171.22
2023-01-08T02:56:59.400Z,101179.19
2023-01-08T02:59:29.627Z,101171.16
2023-01-08T03:01:57.895Z,101171.97
2023-01-08T03:04:27.938Z,101162.34
2023-01-08T03:06:55.440Z,101165.19
2023-01-08T03:09:23.923Z,101174.75
2023-01-08T03:12:02.300Z,101160.66
2023-01-08T03:14:39.334Z,101159.75
2023-01-08T03:17:09.575Z,101163.31
2023-01-08T03:19:42.870Z,101143.03
2023-01-08T03:22:13.592Z,101135.03
2023-01-08T03:24:44.087Z,101137.72
2023-01-08T03:27:18.590Z,101159.69
2023-01-08T03:29:49.071Z,101156.94
2023-01-08T03:32:18.732Z,101160.47
2023-01-08T03:34:49.302Z,101168.41
2023-01-08T03:37:22.870Z,101172.88
2023-01-08T03:40:14.407Z,101167.53
2023-01-08T03:42:42.059Z,101154.25
2023-01-08T03:45:09.974Z,101131.47
2023-01-08T03:47:39.674Z,101122.66
2023-01-08T03:50:11.345Z,101147.31
2023-01-08T03:52:38.682Z,101153.41
2023-01-08T03:55:06.184Z,101153.50
2023-01-08T03:57:33.629Z,101165.78
2023-01-08T04:00:01.449Z,101154.19
2023-01-08T04:02:29.494Z,101152.41
2023-01-08T04:04:57.212Z,101149.72
2023-01-08T04:07:24.667Z,101134.72
2023-01-08T04:09:52.131Z,101136.41
2023-01-08T04:12:19.574Z,101126.03
2023-01-08T04:14:47.051Z,101117.16
2023-01-08T04:17:14.520Z,101126.81
2023-01-08T04:19:42.048Z,101116.44
2023-01-08T04:22:11.105Z,101105.84
2023-01-08T04:24:42.887Z,101111.94
2023-01-08T04:27:10.473Z,101125.97
2023-01-08T04:29:38.032Z,101123.31
2023-01-08T04:32:05.491Z,101118.88
2023-01-08T04:34:33.162Z,101124.25
2023-01-08T04:37:00.792Z,101115.38
2023-01-08T04:39:28.247Z,101111.03
2023-01-08T04:41:55.750Z,101108.31
2023-01-08T04:44:23.296Z,101103.81
2023-01-08T04:46:50.856Z,101092.44
2023-01-08T04:49:18.304Z,101098.53
2023-01-08T04:51:45.713Z,101092.44
2023-01-08T04:54:13.128Z,101094.13
2023-01-08T04:56:40.548Z,101075.56
2023-01-08T04:59:07.950Z,101071.13
2023-01-08T05:01:35.739Z,101067.56
2023-01-08T05:04:05.075Z,101072.97
2023-01-08T05:06:33.001Z,101087.00
2023-01-08T05:09:00.527Z,101066.88
2023-01-08T05:11:28.209Z,101079.97
2023-01-08T05:13:56.585Z,101081.72
2023-01-08T05:16:24.214Z,101079.94
2023-01-08T05:18:51.875Z,101081.75
2023-01-08T05:21:19.413Z,101055.19
2023-01-08T05:23:47.857Z,101056.94
2023-01-08T05:26:16.480Z,101047.06
2023-01-08T05:28:44.200Z,101056.88
2023-01-08T05:31:11.933Z,101051.50
2023-01-08T05:33:40.100Z,101064.06
2023-01-08T05:36:09.122Z,101066.72
2023-01-08T05:38:36.964Z,101072.84
2023-01-08T05:41:05.431Z,101072.03
2023-01-08T05:43:33.404Z,101069.31
2023-01-08T05:46:02.001Z,101069.41
2023-01-08T05:48:30.926Z,101056.22
2023-01-08T05:50:58.399Z,101062.38
2023-01-08T05:53:25.909Z,101073.84
2023-01-08T05:55:58.968Z,101077.41
2023-01-08T05:58:27.293Z,101072.09
2023-01-08T06:01:02.279Z,101069.38
2023-01-08T06:03:29.680Z,101057.81
2023-01-08T06:06:02.527Z,101077.28
2023-01-08T06:08:30.818Z,101074.69
2023-01-08T06:11:04.205Z,101052.78
2023-01-08T06:13:32.604Z,101063.28
2023-01-08T06:16:00.760Z,101066.78
2023-01-08T06:18:29.581Z,101065.13
2023-01-08T06:20:57.152Z,101079.28
2023-01-08T06:23:24.551Z,101073.09
2023-01-08T06:25:56.650Z,101058.94
2023-01-08T06:28:24.601Z,101053.75
2023-01-08T06:30:52.433Z,101060.84
2023-01-08T06:33:21.457Z,101038.84
2023-01-08T06:35:49.091Z,101040.56
2023-01-08T06:38:19.299Z,101037.13
2023-01-08T06:40:47.733Z,101043.06
2023-01-08T06:43:16.067Z,101050.03
2023-01-08T06:45:43.489Z,101018.38
2023-01-08T06:48:10.920Z,101019.22
2023-01-08T06:50:38.534Z,101035.28
2023-01-08T06:53:06.039Z,101054.72
2023-01-08T06:55:33.512Z,101054.63
2023-01-08T06:58:00.912Z,101061.59
2023-01-08T07:00:31.969Z,101060.59
2023-01-08T07:03:00.803Z,101048.25
2023-01-08T07:05:28.417Z,101039.47
2023-01-08T07:07:59.034Z,101033.13
2023-01-08T07:10:27.541Z,101024.34
2023-01-08T07:12:54.964Z,101040.28
2023-01-08T07:15:22.490Z,101028.84
2023-01-08T07:17:50.037Z,101014.53
2023-01-08T07:20:17.778Z,101001.38
2023-01-08T07:22:45.343Z,101013.66
2023-01-08T07:25:12.827Z,100999.56
2023-01-08T07:27:40.291Z,101023.28
2023-01-08T07:30:11.019Z,101016.16
2023-01-08T07:32:45.591Z,101015.16
2023-01-08T07:35:12.995Z,101012.56
2023-01-08T07:37:41.259Z,101012.69
2023-01-08T07:40:10.858Z,101023.28
2023-01-08T07:42:38.800Z,101030.38
2023-01-08T07:45:07.998Z,101039.22
2023-01-08T07:47:35.459Z,101043.63
2023-01-08T07:50:03.266Z,101044.56
2023-01-08T07:52:30.700Z,101037.44
2023-01-08T07:54:58.032Z,101043.66
2023-01-08T07:57:25.879Z,101041.91
2023-01-08T07:59:53.222Z,101049.75
2023-01-08T08:02:20.721Z,101031.16
2023-01-08T08:04:48.473Z,101032.94
2023-01-08T08:07:16.461Z,101029.38
2023-01-08T08:09:43.909Z,101040.88
2023-01-08T08:12:11.298Z,101024.97
2023-01-08T08:14:38.736Z,101021.44
2023-01-08T08:17:06.179Z,101025.06
2023-01-08T08:19:33.647Z,101019.66
2023-01-08T08:22:02.010Z,101003.78
2023-01-08T08:24:29.419Z,100985.19
2023-01-08T08:26:56.899Z,100998.41
2023-01-08T08:29:24.299Z,100994.84
2023-01-08T08:31:55.474Z,101004.59
2023-01-08T08:34:23.102Z,101001.09
2023-01-08T08:36:50.733Z,101002.06
2023-01-08T08:39:19.665Z,101010.84
2023-01-08T08:41:47.092Z,101004.75
2023-01-08T08:44:14.470Z,100996.66
2023-01-08T08:46:42.373Z,100984.13
2023-01-08T08:49:09.895Z,100977.66
2023-01-08T08:51:41.209Z,100980.44
2023-01-08T08:54:09.878Z,100984.91
2023-01-08T08:56:37.341Z,100971.75
2023-01-08T08:59:04.878Z,100973.41
2023-01-08T09:01:32.578Z,100963.78
2023-01-08T09:04:00.187Z,100968.19
2023-01-08T09:06:27.781Z,100986.38
2023-01-08T09:08:55.339Z,100975.78
2023-01-08T09:11:22.776Z,100985.66
2023-01-08T09:13:50.125Z,100976.00
2023-01-08T09:16:20.704Z,100967.41
2023-01-08T09:18:50.669Z,100966.44
2023-01-08T09:21:25.804Z,100959.47
2023-01-08T09:23:53.533Z,100962.19
2023-01-08T09:26:21.048Z,100958.59
2023-01-08T09:28:48.493Z,100952.28
2023-01-08T09:31:16.024Z,100941.78
2023-01-08T09:33:43.396Z,100946.41
2023-01-08T09:36:17.161Z,100941.00
2023-01-08T09:38:48.133Z,100947.94
2023-01-08T09:41:20.725Z,100930.16
2023-01-08T09:43:51.809Z,100945.34
2023-01-08T09:46:23.337Z,100925.88
2023-01-08T09:48:52.699Z,100925.88
2023-01-08T09:51:21.489Z,100932.94
2023-01-08T09:53:55.673Z,100916.09
2023-01-08T09:56:23.474Z,100913.38
2023-01-08T09:58:55.748Z,100914.28
2023-01-08T10:01:46.285Z,100902.75
2023-01-08T10:04:21.436Z,100901.19
2023-01-08T10:07:06.087Z,100892.06
2023-01-08T10:09:34.684Z,100893.81
2023-01-08T10:12:05.191Z,100892.97
2023-01-08T10:14:37.636Z,100900.03
2023-01-08T10:17:18.830Z,100879.63
2023-01-08T10:19:46.278Z,100879.75
2023-01-08T10:22:17.658Z,100880.75
2023-01-08T10:24:45.374Z,100884.28
2023-01-08T10:27:15.230Z,100884.97
2023-01-08T10:29:44.172Z,100875.38
2023-01-08T10:32:34.632Z,100879.78
2023-01-08T10:35:07.878Z,100868.22
2023-01-08T10:37:42.479Z,100863.78
2023-01-08T10:40:49.595Z,100858.38
2023-01-08T10:43:20.585Z,100836.38
2023-01-08T10:46:01.839Z,100846.19
2023-01-08T10:48:37.561Z,100848.28
2023-01-08T10:51:17.478Z,100851.84
2023-01-08T10:53:45.388Z,100838.56
2023-01-08T10:56:40.981Z,100838.41
2023-01-08T10:59:22.152Z,100838.47
2023-01-08T11:01:52.563Z,100841.25
2023-01-08T11:04:36.334Z,100839.38
2023-01-08T11:07:06.896Z,100836.81
2023-01-08T11:09:42.411Z,100836.59
2023-01-08T11:12:33.104Z,100826.34
2023-01-08T11:15:00.729Z,100823.72
2023-01-08T11:17:32.396Z,100819.34
2023-01-08T11:20:23.735Z,100810.44
2023-01-08T11:22:51.245Z,100816.72
2023-01-08T11:25:29.872Z,100807.75
2023-01-08T11:27:59.470Z,100797.06
2023-01-08T11:30:32.360Z,100783.72
2023-01-08T11:33:06.834Z,100757.53
2023-01-08T11:35:42.377Z,100761.84
2023-01-08T11:38:13.638Z,100746.75
2023-01-08T11:41:03.912Z,100743.84
2023-01-08T11:43:40.259Z,100743.06
2023-01-08T11:46:42.846Z,100749.94
2023-01-08T11:49:19.785Z,100746.44
2023-01-08T11:51:47.108Z,100754.41
2023-01-08T11:54:45.874Z,100740.34
2023-01-08T11:57:44.519Z,100749.16
2023-01-08T12:00:27.222Z,100750.84
2023-01-08T12:02:57.022Z,100750.94
2023-01-08T12:05:32.740Z,100755.25
2023-01-08T12:08:05.468Z,100745.56
2023-01-08T12:11:09.417Z,100756.94
2023-01-08T12:13:47.968Z,100734.09
2023-01-08T12:16:39.614Z,100737.63
2023-01-08T12:19:12.795Z,100719.72
2023-01-08T12:22:01.171Z,100723.25
2023-01-08T12:24:40.837Z,100717.78
2023-01-08T12:27:48.457Z,100711.97
2023-01-08T12:30:17.832Z,100708.50
2023-01-08T12:33:30.504Z,100691.94
2023-01-08T12:36:01.478Z,100672.53
2023-01-08T12:38:33.277Z,100695.44
2023-01-08T12:41:10.008Z,100684.00
2023-01-08T12:43:49.513Z,100681.19
2023-01-08T12:46:18.446Z,100682.88
2023-01-08T12:48:50.857Z,100676.88
2023-01-08T12:51:48.841Z,100693.56
2023-01-08T12:54:50.293Z,100685.72
2023-01-08T12:57:38.932Z,100683.78
2023-01-08T13:00:23.278Z,100691.72
2023-01-08T13:02:58.972Z,100688.34
2023-01-08T13:05:26.915Z,100670.69
2023-01-08T13:08:20.234Z,100672.44
2023-01-08T13:10:55.352Z,100678.63
2023-01-08T13:13:26.609Z,100681.16
2023-01-08T13:16:20.150Z,100687.38
2023-01-08T13:19:02.635Z,100691.09
2023-01-08T13:21:37.253Z,100667.09
2023-01-08T13:24:29.788Z,100657.63
2023-01-08T13:27:09.193Z,100681.50
2023-01-08T13:29:39.899Z,100683.28
2023-01-08T13:32:25.586Z,100692.03
2023-01-08T13:35:22.357Z,100678.75
2023-01-08T13:37:52.867Z,100678.19
2023-01-08T13:40:39.699Z,100658.47
2023-01-08T13:43:31.458Z,100660.56
2023-01-08T13:46:01.942Z,100659.72
2023-01-08T13:48:47.587Z,100646.56
2023-01-08T13:51:41.969Z,100658.06
2023-01-08T13:54:12.446Z,100646.50
2023-01-08T13:56:45.576Z,100644.84
2023-01-08T13:59:25.369Z,100648.22
2023-01-08T14:01:55.297Z,100640.44
2023-01-08T14:04:24.099Z,100654.31
2023-01-08T14:06:51.703Z,100652.75
2023-01-08T14:09:24.127Z,100650.09
2023-01-08T14:11:57.907Z,100658.94
2023-01-08T14:14:25.390Z,100642.13
2023-01-08T14:16:53.436Z,100648.31
2023-01-08T14:19:23.394Z,100645.72
2023-01-08T14:21:52.937Z,100658.16
2023-01-08T14:24:24.114Z,100638.00
2023-01-08T14:26:57.129Z,100650.13
2023-01-08T14:29:29.605Z,100638.75
2023-01-08T14:32:00.382Z,100653.69
2023-01-08T14:34:31.157Z,100644.91
2023-01-08T14:36:58.698Z,100650.13
2023-01-08T14:39:32.598Z,100649.22
2023-01-08T14:42:26.189Z,100653.63
2023-01-08T14:45:07.593Z,100647.47
2023-01-08T14:47:39.155Z,100645.59
2023-01-08T14:50:07.155Z,100646.53
2023-01-08T14:52:40.810Z,100638.59
2023-01-08T14:55:18.840Z,100633.31
2023-01-08T14:57:52.868Z,100624.50
2023-01-08T15:00:27.310Z,100620.75
2023-01-08T15:02:55.525Z,100616.41
2023-01-08T15:05:29.330Z,100598.84
2023-01-08T15:08:03.051Z,100580.41
2023-01-08T15:10:42.011Z,100587.31
2023-01-08T15:13:23.786Z,100578.50
2023-01-08T15:15:58.647Z,100567.00
2023-01-08T15:18:26.814Z,100557.44
2023-01-08T15:20:55.304Z,100551.19
2023-01-08T15:23:32.783Z,100552.13
2023-01-08T15:26:00.366Z,100545.69
2023-01-08T15:28:27.751Z,100549.94
2023-01-08T15:30:56.600Z,100552.44
2023-01-08T15:33:26.307Z,100544.47
2023-01-08T15:35:53.703Z,100534.66
2023-01-08T15:38:23.588Z,100542.44
2023-01-08T15:40:53.326Z,100531.56
2023-01-08T15:43:21.667Z,100533.44
2023-01-08T15:45:51.215Z,100534.47
2023-01-08T15:48:18.774Z,100530.97
2023-01-08T15:50:46.336Z,100524.88
2023-01-08T15:53:18.204Z,100532.22
2023-01-08T15:55:46.962Z,100526.03
2023-01-08T15:58:15.534Z,100521.63
2023-01-08T16:00:45.856Z,100522.53
2023-01-08T16:03:14.487Z,100510.94
2023-01-08T16:05:41.991Z,100514.38
2023-01-08T16:08:10.581Z,100510.72
2023-01-08T16:10:38.306Z,100500.28
2023-01-08T16:13:05.642Z,100499.38
2023-01-08T16:15:33.167Z,100493.25
2023-01-08T16:18:00.573Z,100489.72
2023-01-08T16:20:27.980Z,100484.31
2023-01-08T16:22:56.669Z,100475.47
2023-01-08T16:25:24.792Z,100472.25
2023-01-08T16:27:52.988Z,100458.84
2023-01-08T16:30:20.665Z,100460.31
2023-01-08T16:32:52.983Z,100452.31
2023-01-08T16:35:21.833Z,100447.97
2023-01-08T16:37:49.178Z,100444.50
2023-01-08T16:40:16.746Z,100445.38
2023-01-08T16:42:44.099Z,100438.41
2023-01-08T16:45:11.506Z,100423.28
2023-01-08T16:47:39.202Z,100424.31
2023-01-08T16:50:07.749Z,100423.28
2023-01-08T16:52:37.989Z,100422.53
2023-01-08T16:55:06.546Z,100408.44
2023-01-08T16:57:33.954Z,100391.66
2023-01-08T17:00:01.616Z,100394.34
2023-01-08T17:02:29.165Z,100389.91
2023-01-08T17:04:56.520Z,100384.78
2023-01-08T17:07:24.357Z,100385.56
2023-01-08T17:09:51.712Z,100376.53
2023-01-08T17:12:22.627Z,100383.19
2023-01-08T17:14:50.901Z,100374.22
2023-01-08T17:17:18.381Z,100376.31
2023-01-08T17:19:46.637Z,100362.28
2023-01-08T17:22:14.162Z,100355.19
2023-01-08T17:24:41.615Z,100357.81
2023-01-08T17:27:08.987Z,100353.22
2023-01-08T17:29:36.423Z,100356.13
2023-01-08T17:32:04.055Z,100359.78
2023-01-08T17:34:31.484Z,100360.47
2023-01-08T17:36:58.834Z,100348.94
2023-01-08T17:39:26.355Z,100340.31
2023-01-08T17:42:11.843Z,100342.81
2023-01-08T17:44:39.254Z,100340.06
2023-01-08T17:47:06.778Z,100340.03
2023-01-08T17:49:34.190Z,100341.09
2023-01-08T17:52:01.654Z,100339.44
2023-01-08T17:54:29.121Z,100339.38
2023-01-08T17:56:56.521Z,100339.34
2023-01-08T17:59:24.072Z,100337.56
2023-01-08T18:01:52.932Z,100336.78
2023-01-08T18:04:20.414Z,100335.50
2023-01-08T18:06:47.779Z,100332.16
2023-01-08T18:09:15.182Z,100330.47
2023-01-08T18:11:43.387Z,100327.94
2023-01-08T18:14:13.263Z,100323.19
2023-01-08T18:16:45.434Z,100318.94
2023-01-08T18:19:13.750Z,100317.25
2023-01-08T18:21:41.880Z,100310.31
2023-01-08T18:24:10.170Z,100295.31
2023-01-08T18:26:38.088Z,100289.06
2023-01-08T18:29:05.666Z,100287.28
2023-01-08T18:31:33.115Z,100280.34
2023-01-08T18:34:00.536Z,100285.53
2023-01-08T18:36:28.019Z,100286.41
2023-01-08T18:38:57.287Z,100291.53
2023-01-08T18:41:43.076Z,100276.31
2023-01-08T18:44:10.697Z,100271.84
2023-01-08T18:46:38.381Z,100278.06
2023-01-08T18:49:05.794Z,100273.41
2023-01-08T18:51:33.382Z,100262.78
2023-01-08T18:54:00.798Z,100261.78
2023-01-08T18:56:30.764Z,100259.19
2023-01-08T18:58:58.609Z,100253.97
2023-01-08T19:01:26.272Z,100245.13
2023-01-08T19:03:53.994Z,100249.06
2023-01-08T19:06:21.777Z,100246.31
2023-01-08T19:08:49.364Z,100243.84
2023-01-08T19:11:16.952Z,100246.41
2023-01-08T19:13:44.484Z,100245.50
2023-01-08T19:16:13.756Z,100244.56
2023-01-08T19:18:41.493Z,100247.16
2023-01-08T19:21:09.691Z,100253.28
2023-01-08T19:23:36.995Z,100241.56
2023-01-08T19:26:29.888Z,100241.50
2023-01-08T19:28:57.422Z,100219.75
2023-01-08T19:31:24.835Z,100237.50
2023-01-08T19:33:52.938Z,100234.75
2023-01-08T19:36:21.196Z,100222.41
2023-01-08T19:38:48.712Z,100213.69
2023-01-08T19:41:35.041Z,100196.91
2023-01-08T19:44:02.771Z,100213.56
2023-01-08T19:46:31.131Z,100211.09
2023-01-08T19:49:00.000Z,100204.09
2023-01-08T19:51:28.815Z,100189.25
2023-01-08T19:53:57.247Z,100194.63
2023-01-08T19:56:25.004Z,100195.41
2023-01-08T19:58:52.502Z,100184.81
2023-01-08T20:01:22.815Z,100175.97
2023-01-08T20:03:50.552Z,100168.84
2023-01-08T20:06:20.812Z,100163.31
2023-01-08T20:08:54.306Z,100164.38
2023-01-08T20:11:22.497Z,100160.75
2023-01-08T20:13:50.975Z,100167.84
2023-01-08T20:16:21.177Z,100159.00
2023-01-08T20:18:49.833Z,100164.00
2023-01-08T20:21:24.064Z,100169.97
2023-01-08T20:23:59.779Z,100161.34
2023-01-08T20:26:29.208Z,100123.75
2023-01-08T20:28:57.869Z,100147.16
2023-01-08T20:31:36.890Z,100137.47
2023-01-08T20:34:10.713Z,100136.53
2023-01-08T20:36:40.279Z,100126.00
2023-01-08T20:39:13.471Z,100113.31
2023-01-08T20:41:50.077Z,100112.72
2023-01-08T20:44:32.073Z,100099.41
2023-01-08T20:47:01.693Z,100102.00
2023-01-08T20:49:31.293Z,100111.56
2023-01-08T20:52:01.551Z,100102.50
2023-01-08T20:54:34.634Z,100096.13
2023-01-08T20:57:02.161Z,100086.13
2023-01-08T20:59:30.130Z,100097.91
2023-01-08T21:02:01.505Z,100095.81
2023-01-08T21:04:29.709Z,100082.97
2023-01-08T21:06:57.271Z,100084.53
2023-01-08T21:09:24.751Z,100083.38
2023-01-08T21:11:52.292Z,100068.47
2023-01-08T21:14:19.939Z,100077.09
2023-01-08T21:16:47.694Z,100066.16
2023-01-08T21:19:15.667Z,100056.59
2023-01-08T21:21:43.476Z,100055.00
2023-01-08T21:24:12.367Z,100049.59
2023-01-08T21:26:46.496Z,100042.59
2023-01-08T21:29:14.742Z,100035.69
2023-01-08T21:31:43.248Z,100025.00
2023-01-08T21:34:11.547Z,100028.28
2023-01-08T21:36:39.322Z,100014.00
2023-01-08T21:39:07.315Z,100001.72
2023-01-08T21:41:53.166Z,100002.69
2023-01-08T21:44:41.705Z,99992.13
2023-01-08T21:47:12.214Z,99994.03
2023-01-08T21:49:39.587Z,99991.13
2023-01-08T21:52:25.557Z,99983.88
2023-01-08T21:54:53.879Z,99977.50
2023-01-08T21:57:21.487Z,99974.84
2023-01-08T21:59:50.134Z,99969.63
2023-01-08T22:02:20.071Z,99967.03
2023-01-08T22:04:48.254Z,99965.28
2023-01-08T22:07:16.037Z,99953.84
2023-01-08T22:09:43.434Z,99959.09
2023-01-08T22:12:10.981Z,99949.25
2023-01-08T22:14:38.379Z,99942.28
2023-01-08T22:17:08.575Z,99944.06
2023-01-08T22:19:40.683Z,99946.72
2023-01-08T22:22:10.690Z,99940.47
2023-01-08T22:24:39.612Z,99941.41
2023-01-08T22:27:08.751Z,99932.56
2023-01-08T22:29:37.409Z,99922.00
2023-01-08T22:32:05.189Z,99921.06
2023-01-08T22:34:34.098Z,99919.28
2023-01-08T22:37:01.740Z,99917.50
2023-01-08T22:39:29.495Z,99920.16
2023-01-08T22:41:57.176Z,99913.03
2023-01-08T22:44:24.612Z,99913.03
2023-01-08T22:46:51.974Z,99913.84
2023-01-08T22:49:19.412Z,99913.91
2023-01-08T22:51:46.731Z,99912.13
2023-01-08T22:54:14.642Z,99900.69
2023-01-08T22:56:41.940Z,99899.06
2023-01-08T22:59:09.284Z,99900.91
2023-01-08T23:01:36.710Z,99900.06
2023-01-08T23:04:04.447Z,99890.50
2023-01-08T23:06:32.423Z,99882.53
2023-01-08T23:09:00.332Z,99876.28
2023-01-08T23:11:27.925Z,99868.44
2023-01-08T23:13:55.656Z,99861.38
2023-01-08T23:16:25.317Z,99849.06
2023-01-08T23:18:54.390Z,99843.03
2023-01-08T23:21:24.043Z,99854.72
2023-01-08T23:23:52.299Z,99845.81
2023-01-08T23:29:29.695Z,99842.13
2023-01-08T23:32:00.321Z,99833.44
2023-01-08T23:34:27.749Z,99839.03
2023-01-08T23:36:55.244Z,99823.84
2023-01-08T23:39:26.612Z,99830.75
2023-01-08T23:41:54.224Z,99830.75
2023-01-08T23:44:21.717Z,99830.06
2023-01-08T23:46:49.222Z,99814.03
2023-01-08T23:49:16.684Z,99806.06
2023-01-08T23:51:44.024Z,99799.75
2023-01-08T23:54:12.415Z,99805.19
2023-01-08T23:56:41.092Z,99806.06
2023-01-08T23:59:08.766Z,99788.34
